sensor_id;sensor_type;location;lat;lon;timestamp;P1;durP1;ratioP1;P2;durP2;ratioP2
55346;SDS011;41218;55.700;38.270;2023-10-08T00:03:24;0.57;;;0.20;;
55346;SDS011;41218;55.700;38.270;2023-10-08T00:08:29;0.40;;;0.20;;
55346;SDS011;41218;55.700;38.270;2023-10-08T00:13:29;0.57;;;0.20;;
55346;SDS011;41218;55.700;38.270;2023-10-08T00:18:30;0.20;;;0.20;;
55346;SDS011;41218;55.700;38.270;2023-10-08T00:23:33;0.90;;;0.20;;
55346;SDS011;41218;55.700;38.270;2023-10-08T00:28:35;0.20;;;0.20;;
55346;SDS011;41218;55.700;38.270;2023-10-08T00:33:35;0.20;;;0.20;;
55346;SDS011;41218;55.700;38.270;2023-10-08T00:38:36;0.37;;;0.10;;
55346;SDS011;41218;55.700;38.270;2023-10-08T00:43:41;0.13;;;0.10;;
55346;SDS011;41218;55.700;38.270;2023-10-08T00:48:45;0.20;;;0.17;;
55346;SDS011;41218;55.700;38.270;2023-10-08T00:58:59;1.70;;;0.17;;
55346;SDS011;41218;55.700;38.270;2023-10-08T01:04:02;0.85;;;0.20;;
55346;SDS011;41218;55.700;38.270;2023-10-08T01:09:11;0.25;;;0.10;;
55346;SDS011;41218;55.700;38.270;2023-10-08T01:14:18;0.10;;;0.10;;
55346;SDS011;41218;55.700;38.270;2023-10-08T01:19:21;1.98;;;0.20;;
55346;SDS011;41218;55.700;38.270;2023-10-08T01:24:21;0.93;;;0.10;;
55346;SDS011;41218;55.700;38.270;2023-10-08T01:29:24;0.10;;;0.10;;
55346;SDS011;41218;55.700;38.270;2023-10-08T01:34:28;0.57;;;0.20;;
55346;SDS011;41218;55.700;38.270;2023-10-08T01:39:31;0.20;;;0.20;;
55346;SDS011;41218;55.700;38.270;2023-10-08T01:49:35;0.30;;;0.20;;
55346;SDS011;41218;55.700;38.270;2023-10-08T01:54:37;0.73;;;0.17;;
55346;SDS011;41218;55.700;38.270;2023-10-08T01:59:38;0.60;;;0.20;;
55346;SDS011;41218;55.700;38.270;2023-10-08T02:04:39;0.20;;;0.20;;
55346;SDS011;41218;55.700;38.270;2023-10-08T02:09:40;3.92;;;0.25;;
55346;SDS011;41218;55.700;38.270;2023-10-08T02:14:41;0.10;;;0.10;;
55346;SDS011;41218;55.700;38.270;2023-10-08T02:19:42;0.20;;;0.10;;
55346;SDS011;41218;55.700;38.270;2023-10-08T02:24:42;0.20;;;0.20;;
55346;SDS011;41218;55.700;38.270;2023-10-08T02:29:43;0.10;;;0.10;;
55346;SDS011;41218;55.700;38.270;2023-10-08T02:34:43;0.10;;;0.10;;
55346;SDS011;41218;55.700;38.270;2023-10-08T02:39:45;0.10;;;0.10;;
55346;SDS011;41218;55.700;38.270;2023-10-08T02:44:45;0.27;;;0.10;;
55346;SDS011;41218;55.700;38.270;2023-10-08T02:49:46;0.27;;;0.13;;
55346;SDS011;41218;55.700;38.270;2023-10-08T02:54:49;0.20;;;0.20;;
55346;SDS011;41218;55.700;38.270;2023-10-08T02:59:52;0.10;;;0.10;;
55346;SDS011;41218;55.700;38.270;2023-10-08T03:09:54;0.20;;;0.20;;
55346;SDS011;41218;55.700;38.270;2023-10-08T03:15:06;0.32;;;0.20;;
55346;SDS011;41218;55.700;38.270;2023-10-08T03:20:27;0.30;;;0.10;;
55346;SDS011;41218;55.700;38.270;2023-10-08T03:25:29;0.20;;;0.20;;
55346;SDS011;41218;55.700;38.270;2023-10-08T03:30:30;0.68;;;0.17;;
55346;SDS011;41218;55.700;38.270;2023-10-08T03:35:31;0.10;;;0.10;;
55346;SDS011;41218;55.700;38.270;2023-10-08T03:40:37;0.20;;;0.20;;
55346;SDS011;41218;55.700;38.270;2023-10-08T03:45:43;0.20;;;0.20;;
55346;SDS011;41218;55.700;38.270;2023-10-08T03:50:59;0.85;;;0.30;;
55346;SDS011;41218;55.700;38.270;2023-10-08T03:56:06;1.38;;;0.30;;
55346;SDS011;41218;55.700;38.270;2023-10-08T04:01:13;0.17;;;0.17;;
55346;SDS011;41218;55.700;38.270;2023-10-08T04:06:23;0.60;;;0.28;;
55346;SDS011;41218;55.700;38.270;2023-10-08T04:11:51;0.50;;;0.38;;
55346;SDS011;41218;55.700;38.270;2023-10-08T04:16:53;0.68;;;0.30;;
55346;SDS011;41218;55.700;38.270;2023-10-08T04:21:54;0.27;;;0.27;;
55346;SDS011;41218;55.700;38.270;2023-10-08T04:26:55;0.53;;;0.30;;
55346;SDS011;41218;55.700;38.270;2023-10-08T04:32:00;0.40;;;0.32;;
55346;SDS011;41218;55.700;38.270;2023-10-08T04:37:23;0.30;;;0.20;;
55346;SDS011;41218;55.700;38.270;2023-10-08T04:42:32;0.20;;;0.20;;
55346;SDS011;41218;55.700;38.270;2023-10-08T04:47:32;1.27;;;0.30;;
55346;SDS011;41218;55.700;38.270;2023-10-08T04:52:34;0.40;;;0.20;;
55346;SDS011;41218;55.700;38.270;2023-10-08T04:57:46;0.25;;;0.20;;
55346;SDS011;41218;55.700;38.270;2023-10-08T05:02:49;0.30;;;0.20;;
55346;SDS011;41218;55.700;38.270;2023-10-08T05:07:50;0.45;;;0.30;;
55346;SDS011;41218;55.700;38.270;2023-10-08T05:12:51;0.40;;;0.20;;
55346;SDS011;41218;55.700;38.270;2023-10-08T05:18:16;0.73;;;0.20;;
55346;SDS011;41218;55.700;38.270;2023-10-08T05:23:22;0.20;;;0.20;;
55346;SDS011;41218;55.700;38.270;2023-10-08T05:28:28;0.55;;;0.30;;
55346;SDS011;41218;55.700;38.270;2023-10-08T05:33:30;1.67;;;0.30;;
55346;SDS011;41218;55.700;38.270;2023-10-08T05:38:50;0.30;;;0.30;;
55346;SDS011;41218;55.700;38.270;2023-10-08T05:44:00;0.17;;;0.17;;
55346;SDS011;41218;55.700;38.270;2023-10-08T05:49:19;0.30;;;0.30;;
55346;SDS011;41218;55.700;38.270;2023-10-08T05:54:32;1.70;;;0.28;;
55346;SDS011;41218;55.700;38.270;2023-10-08T05:59:33;0.30;;;0.20;;
55346;SDS011;41218;55.700;38.270;2023-10-08T06:04:53;0.73;;;0.30;;
55346;SDS011;41218;55.700;38.270;2023-10-08T06:10:14;4.93;;;0.30;;
55346;SDS011;41218;55.700;38.270;2023-10-08T06:15:35;0.40;;;0.30;;
55346;SDS011;41218;55.700;38.270;2023-10-08T06:20:49;0.45;;;0.30;;
55346;SDS011;41218;55.700;38.270;2023-10-08T06:25:54;2.63;;;0.40;;
55346;SDS011;41218;55.700;38.270;2023-10-08T06:31:11;2.50;;;0.30;;
55346;SDS011;41218;55.700;38.270;2023-10-08T06:36:11;0.33;;;0.30;;
55346;SDS011;41218;55.700;38.270;2023-10-08T06:41:12;0.30;;;0.30;;
55346;SDS011;41218;55.700;38.270;2023-10-08T06:46:13;0.40;;;0.32;;
55346;SDS011;41218;55.700;38.270;2023-10-08T06:51:15;0.40;;;0.30;;
55346;SDS011;41218;55.700;38.270;2023-10-08T06:56:19;1.88;;;0.60;;
55346;SDS011;41218;55.700;38.270;2023-10-08T07:01:20;0.65;;;0.38;;
55346;SDS011;41218;55.700;38.270;2023-10-08T07:06:39;3.13;;;0.45;;
55346;SDS011;41218;55.700;38.270;2023-10-08T07:11:40;0.73;;;0.45;;
55346;SDS011;41218;55.700;38.270;2023-10-08T07:16:44;2.28;;;0.47;;
55346;SDS011;41218;55.700;38.270;2023-10-08T07:21:47;2.47;;;0.55;;
55346;SDS011;41218;55.700;38.270;2023-10-08T07:26:49;2.40;;;0.40;;
55346;SDS011;41218;55.700;38.270;2023-10-08T07:31:55;0.98;;;0.30;;
55346;SDS011;41218;55.700;38.270;2023-10-08T07:36:56;1.23;;;0.50;;
55346;SDS011;41218;55.700;38.270;2023-10-08T07:41:57;1.10;;;0.50;;
55346;SDS011;41218;55.700;38.270;2023-10-08T07:47:00;0.50;;;0.30;;
55346;SDS011;41218;55.700;38.270;2023-10-08T07:52:01;0.83;;;0.30;;
55346;SDS011;41218;55.700;38.270;2023-10-08T07:57:02;0.25;;;0.20;;
55346;SDS011;41218;55.700;38.270;2023-10-08T08:02:09;0.65;;;0.30;;
55346;SDS011;41218;55.700;38.270;2023-10-08T08:07:13;0.85;;;0.50;;
55346;SDS011;41218;55.700;38.270;2023-10-08T08:12:22;1.13;;;0.30;;
55346;SDS011;41218;55.700;38.270;2023-10-08T08:17:25;0.20;;;0.20;;
55346;SDS011;41218;55.700;38.270;2023-10-08T08:22:26;2.42;;;0.30;;
55346;SDS011;41218;55.700;38.270;2023-10-08T08:27:31;0.77;;;0.40;;
55346;SDS011;41218;55.700;38.270;2023-10-08T08:32:31;1.90;;;0.60;;
55346;SDS011;41218;55.700;38.270;2023-10-08T08:37:32;0.50;;;0.40;;
55346;SDS011;41218;55.700;38.270;2023-10-08T08:42:35;0.68;;;0.40;;
55346;SDS011;41218;55.700;38.270;2023-10-08T08:47:37;0.70;;;0.50;;
55346;SDS011;41218;55.700;38.270;2023-10-08T08:52:38;1.65;;;0.60;;
55346;SDS011;41218;55.700;38.270;2023-10-08T08:57:43;1.65;;;0.50;;
55346;SDS011;41218;55.700;38.270;2023-10-08T09:02:52;0.75;;;0.50;;
55346;SDS011;41218;55.700;38.270;2023-10-08T09:13:05;0.55;;;0.50;;
55346;SDS011;41218;55.700;38.270;2023-10-08T09:18:08;4.53;;;0.70;;
55346;SDS011;41218;55.700;38.270;2023-10-08T09:23:13;3.25;;;0.60;;
55346;SDS011;41218;55.700;38.270;2023-10-08T09:28:17;0.70;;;0.40;;
55346;SDS011;41218;55.700;38.270;2023-10-08T09:33:18;7.15;;;0.50;;
55346;SDS011;41218;55.700;38.270;2023-10-08T09:38:19;1.90;;;0.70;;
55346;SDS011;41218;55.700;38.270;2023-10-08T09:43:23;0.32;;;0.32;;
55346;SDS011;41218;55.700;38.270;2023-10-08T09:48:26;0.68;;;0.60;;
55346;SDS011;41218;55.700;38.270;2023-10-08T09:53:40;2.35;;;0.80;;
55346;SDS011;41218;55.700;38.270;2023-10-08T09:58:47;0.50;;;0.45;;
55346;SDS011;41218;55.700;38.270;2023-10-08T10:03:50;1.10;;;0.50;;
55346;SDS011;41218;55.700;38.270;2023-10-08T10:08:51;0.77;;;0.57;;
55346;SDS011;41218;55.700;38.270;2023-10-08T10:13:58;1.13;;;0.50;;
55346;SDS011;41218;55.700;38.270;2023-10-08T10:19:02;2.92;;;0.40;;
55346;SDS011;41218;55.700;38.270;2023-10-08T10:24:04;1.45;;;0.50;;
55346;SDS011;41218;55.700;38.270;2023-10-08T10:34:16;1.25;;;0.70;;
55346;SDS011;41218;55.700;38.270;2023-10-08T10:39:19;1.30;;;0.60;;
55346;SDS011;41218;55.700;38.270;2023-10-08T10:44:27;0.73;;;0.47;;
55346;SDS011;41218;55.700;38.270;2023-10-08T10:49:31;1.75;;;0.60;;
55346;SDS011;41218;55.700;38.270;2023-10-08T10:54:36;1.17;;;0.60;;
55346;SDS011;41218;55.700;38.270;2023-10-08T10:59:37;0.75;;;0.43;;
55346;SDS011;41218;55.700;38.270;2023-10-08T11:04:38;0.80;;;0.40;;
55346;SDS011;41218;55.700;38.270;2023-10-08T11:09:47;0.57;;;0.50;;
55346;SDS011;41218;55.700;38.270;2023-10-08T11:14:48;1.17;;;0.50;;
55346;SDS011;41218;55.700;38.270;2023-10-08T11:19:52;2.00;;;0.60;;
55346;SDS011;41218;55.700;38.270;2023-10-08T11:24:53;1.20;;;0.65;;
55346;SDS011;41218;55.700;38.270;2023-10-08T11:29:55;1.53;;;0.57;;
55346;SDS011;41218;55.700;38.270;2023-10-08T11:35:00;1.70;;;0.70;;
55346;SDS011;41218;55.700;38.270;2023-10-08T11:40:08;0.65;;;0.50;;
55346;SDS011;41218;55.700;38.270;2023-10-08T11:45:17;2.80;;;0.85;;
55346;SDS011;41218;55.700;38.270;2023-10-08T11:50:18;1.53;;;0.80;;
55346;SDS011;41218;55.700;38.270;2023-10-08T11:55:21;0.98;;;0.63;;
55346;SDS011;41218;55.700;38.270;2023-10-08T12:00:22;0.97;;;0.50;;
55346;SDS011;41218;55.700;38.270;2023-10-08T12:05:25;4.85;;;1.00;;
55346;SDS011;41218;55.700;38.270;2023-10-08T12:10:25;0.87;;;0.80;;
55346;SDS011;41218;55.700;38.270;2023-10-08T12:15:27;1.20;;;0.70;;
55346;SDS011;41218;55.700;38.270;2023-10-08T12:20:35;0.88;;;0.50;;
55346;SDS011;41218;55.700;38.270;2023-10-08T12:25:37;1.33;;;0.73;;
55346;SDS011;41218;55.700;38.270;2023-10-08T12:30:38;0.93;;;0.60;;
55346;SDS011;41218;55.700;38.270;2023-10-08T12:35:43;0.80;;;0.52;;
55346;SDS011;41218;55.700;38.270;2023-10-08T12:40:44;1.90;;;0.90;;
55346;SDS011;41218;55.700;38.270;2023-10-08T12:45:48;2.47;;;0.90;;
55346;SDS011;41218;55.700;38.270;2023-10-08T12:50:52;1.67;;;1.00;;
55346;SDS011;41218;55.700;38.270;2023-10-08T12:55:54;1.65;;;0.95;;
55346;SDS011;41218;55.700;38.270;2023-10-08T13:00:55;1.65;;;0.68;;
55346;SDS011;41218;55.700;38.270;2023-10-08T13:06:03;0.63;;;0.57;;
55346;SDS011;41218;55.700;38.270;2023-10-08T13:11:04;1.40;;;0.57;;
55346;SDS011;41218;55.700;38.270;2023-10-08T13:16:04;2.00;;;0.60;;
55346;SDS011;41218;55.700;38.270;2023-10-08T13:21:07;1.45;;;0.75;;
55346;SDS011;41218;55.700;38.270;2023-10-08T13:26:09;1.08;;;0.63;;
55346;SDS011;41218;55.700;38.270;2023-10-08T13:31:17;0.75;;;0.50;;
55346;SDS011;41218;55.700;38.270;2023-10-08T13:36:19;0.82;;;0.70;;
55346;SDS011;41218;55.700;38.270;2023-10-08T13:41:19;1.07;;;0.70;;
55346;SDS011;41218;55.700;38.270;2023-10-08T13:46:20;1.03;;;0.70;;
55346;SDS011;41218;55.700;38.270;2023-10-08T13:51:25;1.63;;;0.95;;
55346;SDS011;41218;55.700;38.270;2023-10-08T13:56:26;0.97;;;0.70;;
55346;SDS011;41218;55.700;38.270;2023-10-08T14:01:33;3.80;;;0.88;;
55346;SDS011;41218;55.700;38.270;2023-10-08T14:06:35;1.13;;;0.73;;
55346;SDS011;41218;55.700;38.270;2023-10-08T14:11:37;1.58;;;0.70;;
55346;SDS011;41218;55.700;38.270;2023-10-08T14:16:39;1.83;;;0.90;;
55346;SDS011;41218;55.700;38.270;2023-10-08T14:21:43;1.63;;;0.90;;
55346;SDS011;41218;55.700;38.270;2023-10-08T14:26:53;1.13;;;0.60;;
55346;SDS011;41218;55.700;38.270;2023-10-08T14:31:57;2.17;;;0.95;;
55346;SDS011;41218;55.700;38.270;2023-10-08T14:36:59;1.10;;;0.70;;
55346;SDS011;41218;55.700;38.270;2023-10-08T14:42:18;1.48;;;0.73;;
55346;SDS011;41218;55.700;38.270;2023-10-08T14:47:38;1.48;;;0.90;;
55346;SDS011;41218;55.700;38.270;2023-10-08T14:52:38;1.60;;;0.73;;
55346;SDS011;41218;55.700;38.270;2023-10-08T15:07:42;1.80;;;1.03;;
55346;SDS011;41218;55.700;38.270;2023-10-08T15:12:43;1.77;;;1.10;;
55346;SDS011;41218;55.700;38.270;2023-10-08T15:17:45;2.13;;;1.00;;
55346;SDS011;41218;55.700;38.270;2023-10-08T15:22:47;1.75;;;0.90;;
55346;SDS011;41218;55.700;38.270;2023-10-08T15:27:48;2.17;;;1.08;;
55346;SDS011;41218;55.700;38.270;2023-10-08T15:32:49;1.30;;;0.90;;
55346;SDS011;41218;55.700;38.270;2023-10-08T15:37:50;1.90;;;1.00;;
55346;SDS011;41218;55.700;38.270;2023-10-08T15:42:53;1.92;;;0.90;;
55346;SDS011;41218;55.700;38.270;2023-10-08T15:47:55;2.38;;;1.15;;
55346;SDS011;41218;55.700;38.270;2023-10-08T15:52:58;2.08;;;0.90;;
55346;SDS011;41218;55.700;38.270;2023-10-08T15:58:00;1.95;;;0.93;;
55346;SDS011;41218;55.700;38.270;2023-10-08T16:03:01;2.33;;;1.10;;
55346;SDS011;41218;55.700;38.270;2023-10-08T16:08:06;1.67;;;1.15;;
55346;SDS011;41218;55.700;38.270;2023-10-08T16:13:21;2.15;;;1.08;;
55346;SDS011;41218;55.700;38.270;2023-10-08T16:18:23;1.45;;;1.10;;
55346;SDS011;41218;55.700;38.270;2023-10-08T16:23:23;1.97;;;1.40;;
55346;SDS011;41218;55.700;38.270;2023-10-08T16:28:28;2.08;;;1.45;;
55346;SDS011;41218;55.700;38.270;2023-10-08T16:33:33;1.75;;;1.17;;
55346;SDS011;41218;55.700;38.270;2023-10-08T16:38:45;2.78;;;1.20;;
55346;SDS011;41218;55.700;38.270;2023-10-08T16:43:49;1.85;;;1.02;;
55346;SDS011;41218;55.700;38.270;2023-10-08T16:49:13;2.17;;;0.98;;
55346;SDS011;41218;55.700;38.270;2023-10-08T16:54:32;1.45;;;0.80;;
55346;SDS011;41218;55.700;38.270;2023-10-08T16:59:36;1.48;;;0.75;;
55346;SDS011;41218;55.700;38.270;2023-10-08T17:05:20;1.58;;;0.98;;
55346;SDS011;41218;55.700;38.270;2023-10-08T17:10:23;3.80;;;0.75;;
55346;SDS011;41218;55.700;38.270;2023-10-08T17:15:30;1.40;;;0.80;;
55346;SDS011;41218;55.700;38.270;2023-10-08T17:20:32;1.83;;;0.80;;
55346;SDS011;41218;55.700;38.270;2023-10-08T17:25:34;2.30;;;0.88;;
55346;SDS011;41218;55.700;38.270;2023-10-08T17:30:35;2.88;;;0.80;;
55346;SDS011;41218;55.700;38.270;2023-10-08T17:35:40;1.80;;;0.88;;
55346;SDS011;41218;55.700;38.270;2023-10-08T17:40:42;2.15;;;0.80;;
55346;SDS011;41218;55.700;38.270;2023-10-08T17:45:43;1.23;;;0.70;;
55346;SDS011;41218;55.700;38.270;2023-10-08T17:50:46;1.92;;;1.10;;
55346;SDS011;41218;55.700;38.270;2023-10-08T17:55:47;3.70;;;1.10;;
55346;SDS011;41218;55.700;38.270;2023-10-08T18:00:51;2.67;;;1.00;;
55346;SDS011;41218;55.700;38.270;2023-10-08T18:05:51;1.47;;;1.20;;
55346;SDS011;41218;55.700;38.270;2023-10-08T18:10:53;1.67;;;1.05;;
55346;SDS011;41218;55.700;38.270;2023-10-08T18:15:57;2.58;;;1.40;;
55346;SDS011;41218;55.700;38.270;2023-10-08T18:20:58;2.78;;;1.15;;
55346;SDS011;41218;55.700;38.270;2023-10-08T18:25:59;3.00;;;1.20;;
55346;SDS011;41218;55.700;38.270;2023-10-08T18:31:02;1.50;;;1.00;;
55346;SDS011;41218;55.700;38.270;2023-10-08T18:36:11;2.67;;;1.20;;
55346;SDS011;41218;55.700;38.270;2023-10-08T18:41:26;2.97;;;1.50;;
55346;SDS011;41218;55.700;38.270;2023-10-08T18:46:30;3.35;;;1.38;;
55346;SDS011;41218;55.700;38.270;2023-10-08T18:51:32;1.98;;;1.40;;
55346;SDS011;41218;55.700;38.270;2023-10-08T18:56:35;3.50;;;1.10;;
55346;SDS011;41218;55.700;38.270;2023-10-08T19:01:36;2.85;;;1.45;;
55346;SDS011;41218;55.700;38.270;2023-10-08T19:06:39;4.07;;;1.45;;
55346;SDS011;41218;55.700;38.270;2023-10-08T19:11:44;2.85;;;1.80;;
55346;SDS011;41218;55.700;38.270;2023-10-08T19:16:45;3.08;;;1.73;;
55346;SDS011;41218;55.700;38.270;2023-10-08T19:21:49;2.47;;;1.42;;
55346;SDS011;41218;55.700;38.270;2023-10-08T19:26:49;2.30;;;1.60;;
55346;SDS011;41218;55.700;38.270;2023-10-08T19:31:53;2.70;;;1.37;;
55346;SDS011;41218;55.700;38.270;2023-10-08T19:36:58;2.53;;;1.45;;
55346;SDS011;41218;55.700;38.270;2023-10-08T19:42:04;2.33;;;1.35;;
55346;SDS011;41218;55.700;38.270;2023-10-08T19:47:09;3.08;;;1.20;;
55346;SDS011;41218;55.700;38.270;2023-10-08T19:52:49;2.75;;;1.58;;
55346;SDS011;41218;55.700;38.270;2023-10-08T19:58:12;2.03;;;1.25;;
55346;SDS011;41218;55.700;38.270;2023-10-08T20:03:15;1.35;;;1.00;;
55346;SDS011;41218;55.700;38.270;2023-10-08T20:08:43;1.40;;;0.90;;
55346;SDS011;41218;55.700;38.270;2023-10-08T20:13:45;1.05;;;0.73;;
55346;SDS011;41218;55.700;38.270;2023-10-08T20:18:48;1.25;;;0.80;;
55346;SDS011;41218;55.700;38.270;2023-10-08T20:23:57;1.02;;;0.90;;
55346;SDS011;41218;55.700;38.270;2023-10-08T20:29:06;1.65;;;0.70;;
55346;SDS011;41218;55.700;38.270;2023-10-08T20:34:14;0.60;;;0.60;;
55346;SDS011;41218;55.700;38.270;2023-10-08T20:39:15;0.90;;;0.60;;
55346;SDS011;41218;55.700;38.270;2023-10-08T20:44:19;1.55;;;0.50;;
55346;SDS011;41218;55.700;38.270;2023-10-08T20:49:23;1.25;;;0.60;;
55346;SDS011;41218;55.700;38.270;2023-10-08T20:54:26;0.88;;;0.55;;
55346;SDS011;41218;55.700;38.270;2023-10-08T20:59:33;0.55;;;0.40;;
55346;SDS011;41218;55.700;38.270;2023-10-08T21:04:37;0.55;;;0.40;;
55346;SDS011;41218;55.700;38.270;2023-10-08T21:09:37;0.63;;;0.33;;
55346;SDS011;41218;55.700;38.270;2023-10-08T21:14:38;0.73;;;0.55;;
55346;SDS011;41218;55.700;38.270;2023-10-08T21:19:39;0.73;;;0.37;;
55346;SDS011;41218;55.700;38.270;2023-10-08T21:24:40;0.68;;;0.50;;
55346;SDS011;41218;55.700;38.270;2023-10-08T21:29:41;3.40;;;0.40;;
55346;SDS011;41218;55.700;38.270;2023-10-08T21:34:41;0.67;;;0.40;;
55346;SDS011;41218;55.700;38.270;2023-10-08T21:39:45;0.22;;;0.22;;
55346;SDS011;41218;55.700;38.270;2023-10-08T21:44:46;0.33;;;0.33;;
55346;SDS011;41218;55.700;38.270;2023-10-08T21:49:48;0.30;;;0.30;;
55346;SDS011;41218;55.700;38.270;2023-10-08T21:54:51;0.40;;;0.40;;
55346;SDS011;41218;55.700;38.270;2023-10-08T21:59:54;0.50;;;0.40;;
55346;SDS011;41218;55.700;38.270;2023-10-08T22:04:55;1.13;;;0.30;;
55346;SDS011;41218;55.700;38.270;2023-10-08T22:09:55;0.30;;;0.30;;
55346;SDS011;41218;55.700;38.270;2023-10-08T22:14:56;0.30;;;0.30;;
55346;SDS011;41218;55.700;38.270;2023-10-08T22:19:57;0.22;;;0.20;;
55346;SDS011;41218;55.700;38.270;2023-10-08T22:24:58;0.43;;;0.40;;
55346;SDS011;41218;55.700;38.270;2023-10-08T22:29:59;0.47;;;0.30;;
55346;SDS011;41218;55.700;38.270;2023-10-08T22:35:04;0.57;;;0.40;;
55346;SDS011;41218;55.700;38.270;2023-10-08T22:40:14;0.73;;;0.30;;
55346;SDS011;41218;55.700;38.270;2023-10-08T22:45:16;0.30;;;0.30;;
55346;SDS011;41218;55.700;38.270;2023-10-08T22:50:16;1.10;;;0.40;;
55346;SDS011;41218;55.700;38.270;2023-10-08T22:55:35;0.20;;;0.20;;
55346;SDS011;41218;55.700;38.270;2023-10-08T23:00:37;0.20;;;0.20;;
55346;SDS011;41218;55.700;38.270;2023-10-08T23:05:41;0.35;;;0.30;;
55346;SDS011;41218;55.700;38.270;2023-10-08T23:10:44;0.40;;;0.40;;
55346;SDS011;41218;55.700;38.270;2023-10-08T23:15:45;0.50;;;0.22;;
55346;SDS011;41218;55.700;38.270;2023-10-08T23:20:49;0.75;;;0.30;;
55346;SDS011;41218;55.700;38.270;2023-10-08T23:25:50;0.37;;;0.27;;
55346;SDS011;41218;55.700;38.270;2023-10-08T23:30:52;0.22;;;0.20;;
55346;SDS011;41218;55.700;38.270;2023-10-08T23:40:54;0.33;;;0.20;;
55346;SDS011;41218;55.700;38.270;2023-10-08T23:45:58;0.20;;;0.20;;
55346;SDS011;41218;55.700;38.270;2023-10-08T23:51:00;0.30;;;0.20;;
55346;SDS011;41218;55.700;38.270;2023-10-08T23:56:03;0.25;;;0.25;;
